sensor_id;sensor_type;location;lat;lon;timestamp;pressure;altitude;pressure_sealevel;temperature
22828;BMP180;11580;52.562;13.418;2022-10-22T00:00:07;100156.00;;;19.00
22828;BMP180;11580;52.562;13.418;2022-10-22T00:02:34;100161.00;;;18.90
22828;BMP180;11580;52.562;13.418;2022-10-22T00:05:04;100171.00;;;18.90
22828;BMP180;11580;52.562;13.418;2022-10-22T00:07:32;100179.00;;;18.90
22828;BMP180;11580;52.562;13.418;2022-10-22T00:09:59;100185.00;;;18.80
22828;BMP180;11580;52.562;13.418;2022-10-22T00:12:27;100177.00;;;18.80
22828;BMP180;11580;52.562;13.418;2022-10-22T00:14:54;100176.00;;;18.80
22828;BMP180;11580;52.562;13.418;2022-10-22T00:17:21;100178.00;;;18.80
22828;BMP180;11580;52.562;13.418;2022-10-22T00:19:48;100178.00;;;18.80
22828;BMP180;11580;52.562;13.418;2022-10-22T00:22:17;100168.00;;;18.80
22828;BMP180;11580;52.562;13.418;2022-10-22T00:24:44;100168.00;;;18.80
22828;BMP180;11580;52.562;13.418;2022-10-22T00:27:12;100173.00;;;18.80
22828;BMP180;11580;52.562;13.418;2022-10-22T00:29:40;100180.00;;;18.80
22828;BMP180;11580;52.562;13.418;2022-10-22T00:32:08;100170.00;;;18.80
22828;BMP180;11580;52.562;13.418;2022-10-22T00:34:35;100158.00;;;18.80
22828;BMP180;11580;52.562;13.418;2022-10-22T00:37:02;100160.00;;;18.80
22828;BMP180;11580;52.562;13.418;2022-10-22T00:39:31;100155.00;;;18.80
22828;BMP180;11580;52.562;13.418;2022-10-22T00:41:59;100157.00;;;18.80
22828;BMP180;11580;52.562;13.418;2022-10-22T00:45:00;100150.00;;;18.80
22828;BMP180;11580;52.562;13.418;2022-10-22T00:47:35;100151.00;;;18.80
22828;BMP180;11580;52.562;13.418;2022-10-22T00:50:08;100139.00;;;18.90
22828;BMP180;11580;52.562;13.418;2022-10-22T00:52:36;100149.00;;;18.90
22828;BMP180;11580;52.562;13.418;2022-10-22T00:55:06;100150.00;;;18.90
22828;BMP180;11580;52.562;13.418;2022-10-22T00:57:34;100147.00;;;18.90
22828;BMP180;11580;52.562;13.418;2022-10-22T01:00:04;100156.00;;;18.90
22828;BMP180;11580;52.562;13.418;2022-10-22T01:02:32;100167.00;;;18.90
22828;BMP180;11580;52.562;13.418;2022-10-22T01:05:00;100168.00;;;18.90
22828;BMP180;11580;52.562;13.418;2022-10-22T01:07:27;100170.00;;;18.90
22828;BMP180;11580;52.562;13.418;2022-10-22T01:10:04;100167.00;;;18.90
22828;BMP180;11580;52.562;13.418;2022-10-22T01:12:45;100178.00;;;18.80
22828;BMP180;11580;52.562;13.418;2022-10-22T01:15:22;100167.00;;;18.80
22828;BMP180;11580;52.562;13.418;2022-10-22T01:17:58;100171.00;;;18.80
22828;BMP180;11580;52.562;13.418;2022-10-22T01:20:49;100179.00;;;18.70
22828;BMP180;11580;52.562;13.418;2022-10-22T01:23:50;100182.00;;;18.80
22828;BMP180;11580;52.562;13.418;2022-10-22T01:26:29;100168.00;;;18.70
22828;BMP180;11580;52.562;13.418;2022-10-22T01:29:08;100166.00;;;18.80
22828;BMP180;11580;52.562;13.418;2022-10-22T01:31:43;100176.00;;;18.70
22828;BMP180;11580;52.562;13.418;2022-10-22T01:34:16;100167.00;;;18.70
22828;BMP180;11580;52.562;13.418;2022-10-22T01:36:45;100141.00;;;18.70
22828;BMP180;11580;52.562;13.418;2022-10-22T01:39:15;100170.00;;;18.70
22828;BMP180;11580;52.562;13.418;2022-10-22T01:41:44;100167.00;;;18.70
22828;BMP180;11580;52.562;13.418;2022-10-22T01:44:28;100167.00;;;18.70
22828;BMP180;11580;52.562;13.418;2022-10-22T01:47:09;100168.00;;;18.70
22828;BMP180;11580;52.562;13.418;2022-10-22T01:50:09;100165.00;;;18.70
22828;BMP180;11580;52.562;13.418;2022-10-22T01:53:00;100170.00;;;18.70
22828;BMP180;11580;52.562;13.418;2022-10-22T01:55:40;100167.00;;;18.70
22828;BMP180;11580;52.562;13.418;2022-10-22T01:58:23;100170.00;;;18.60
22828;BMP180;11580;52.562;13.418;2022-10-22T02:01:03;100167.00;;;18.60
22828;BMP180;11580;52.562;13.418;2022-10-22T02:03:40;100161.00;;;18.60
22828;BMP180;11580;52.562;13.418;2022-10-22T02:06:16;100161.00;;;18.60
22828;BMP180;11580;52.562;13.418;2022-10-22T02:08:47;100162.00;;;18.60
22828;BMP180;11580;52.562;13.418;2022-10-22T02:11:16;100165.00;;;18.50
22828;BMP180;11580;52.562;13.418;2022-10-22T02:13:47;100179.00;;;18.50
22828;BMP180;11580;52.562;13.418;2022-10-22T02:16:34;100186.00;;;18.50
22828;BMP180;11580;52.562;13.418;2022-10-22T02:19:10;100177.00;;;18.50
22828;BMP180;11580;52.562;13.418;2022-10-22T02:21:40;100181.00;;;18.50
22828;BMP180;11580;52.562;13.418;2022-10-22T02:24:08;100171.00;;;18.50
22828;BMP180;11580;52.562;13.418;2022-10-22T02:26:41;100165.00;;;18.50
22828;BMP180;11580;52.562;13.418;2022-10-22T02:29:18;100165.00;;;18.50
22828;BMP180;11580;52.562;13.418;2022-10-22T02:31:49;100156.00;;;18.50
22828;BMP180;11580;52.562;13.418;2022-10-22T02:34:24;100167.00;;;18.50
22828;BMP180;11580;52.562;13.418;2022-10-22T02:36:54;100159.00;;;18.50
22828;BMP180;11580;52.562;13.418;2022-10-22T02:39:22;100160.00;;;18.50
22828;BMP180;11580;52.562;13.418;2022-10-22T02:41:49;100164.00;;;18.50
22828;BMP180;11580;52.562;13.418;2022-10-22T02:44:21;100157.00;;;18.50
22828;BMP180;11580;52.562;13.418;2022-10-22T02:46:50;100162.00;;;18.50
22828;BMP180;11580;52.562;13.418;2022-10-22T02:49:17;100168.00;;;18.50
22828;BMP180;11580;52.562;13.418;2022-10-22T02:51:45;100167.00;;;18.50
22828;BMP180;11580;52.562;13.418;2022-10-22T02:54:12;100163.00;;;18.50
22828;BMP180;11580;52.562;13.418;2022-10-22T02:56:39;100173.00;;;18.50
22828;BMP180;11580;52.562;13.418;2022-10-22T02:59:06;100170.00;;;18.40
22828;BMP180;11580;52.562;13.418;2022-10-22T03:01:34;100179.00;;;18.40
22828;BMP180;11580;52.562;13.418;2022-10-22T03:04:03;100183.00;;;18.40
22828;BMP180;11580;52.562;13.418;2022-10-22T03:06:30;100178.00;;;18.40
22828;BMP180;11580;52.562;13.418;2022-10-22T03:08:57;100176.00;;;18.40
22828;BMP180;11580;52.562;13.418;2022-10-22T03:11:24;100174.00;;;18.30
22828;BMP180;11580;52.562;13.418;2022-10-22T03:13:52;100166.00;;;18.30
22828;BMP180;11580;52.562;13.418;2022-10-22T03:16:19;100171.00;;;18.30
22828;BMP180;11580;52.562;13.418;2022-10-22T03:18:46;100168.00;;;18.30
22828;BMP180;11580;52.562;13.418;2022-10-22T03:21:26;100161.00;;;18.30
22828;BMP180;11580;52.562;13.418;2022-10-22T03:23:55;100173.00;;;18.30
22828;BMP180;11580;52.562;13.418;2022-10-22T03:26:23;100161.00;;;18.30
22828;BMP180;11580;52.562;13.418;2022-10-22T03:28:51;100155.00;;;18.30
22828;BMP180;11580;52.562;13.418;2022-10-22T03:31:18;100150.00;;;18.30
22828;BMP180;11580;52.562;13.418;2022-10-22T03:33:45;100153.00;;;18.20
22828;BMP180;11580;52.562;13.418;2022-10-22T03:36:13;100153.00;;;18.20
22828;BMP180;11580;52.562;13.418;2022-10-22T03:38:41;100156.00;;;18.20
22828;BMP180;11580;52.562;13.418;2022-10-22T03:41:09;100161.00;;;18.30
22828;BMP180;11580;52.562;13.418;2022-10-22T03:43:37;100160.00;;;18.30
22828;BMP180;11580;52.562;13.418;2022-10-22T03:46:05;100161.00;;;18.30
22828;BMP180;11580;52.562;13.418;2022-10-22T03:48:33;100157.00;;;18.30
22828;BMP180;11580;52.562;13.418;2022-10-22T03:51:00;100168.00;;;18.30
22828;BMP180;11580;52.562;13.418;2022-10-22T03:53:28;100163.00;;;18.30
22828;BMP180;11580;52.562;13.418;2022-10-22T03:55:55;100172.00;;;18.30
22828;BMP180;11580;52.562;13.418;2022-10-22T03:58:22;100174.00;;;18.30
22828;BMP180;11580;52.562;13.418;2022-10-22T04:00:50;100174.00;;;18.30
22828;BMP180;11580;52.562;13.418;2022-10-22T04:03:17;100177.00;;;18.30
22828;BMP180;11580;52.562;13.418;2022-10-22T04:05:44;100179.00;;;18.40
22828;BMP180;11580;52.562;13.418;2022-10-22T04:08:11;100185.00;;;18.40
22828;BMP180;11580;52.562;13.418;2022-10-22T04:10:40;100185.00;;;18.40
22828;BMP180;11580;52.562;13.418;2022-10-22T04:13:07;100180.00;;;18.40
22828;BMP180;11580;52.562;13.418;2022-10-22T04:15:34;100189.00;;;18.40
22828;BMP180;11580;52.562;13.418;2022-10-22T04:18:01;100194.00;;;18.40
22828;BMP180;11580;52.562;13.418;2022-10-22T04:20:28;100194.00;;;18.40
22828;BMP180;11580;52.562;13.418;2022-10-22T04:22:55;100195.00;;;18.40
22828;BMP180;11580;52.562;13.418;2022-10-22T04:25:22;100200.00;;;18.40
22828;BMP180;11580;52.562;13.418;2022-10-22T04:27:51;100201.00;;;18.40
22828;BMP180;11580;52.562;13.418;2022-10-22T04:30:18;100209.00;;;18.40
22828;BMP180;11580;52.562;13.418;2022-10-22T04:32:45;100212.00;;;18.40
22828;BMP180;11580;52.562;13.418;2022-10-22T04:35:13;100206.00;;;18.40
22828;BMP180;11580;52.562;13.418;2022-10-22T04:37:40;100213.00;;;18.40
22828;BMP180;11580;52.562;13.418;2022-10-22T04:40:09;100176.00;;;18.40
22828;BMP180;11580;52.562;13.418;2022-10-22T04:42:36;100208.00;;;18.40
22828;BMP180;11580;52.562;13.418;2022-10-22T04:45:06;100205.00;;;18.40
22828;BMP180;11580;52.562;13.418;2022-10-22T04:47:33;100201.00;;;18.40
22828;BMP180;11580;52.562;13.418;2022-10-22T04:50:01;100203.00;;;18.40
22828;BMP180;11580;52.562;13.418;2022-10-22T04:52:28;100195.00;;;18.40
22828;BMP180;11580;52.562;13.418;2022-10-22T04:54:55;100194.00;;;18.40
22828;BMP180;11580;52.562;13.418;2022-10-22T04:57:22;100194.00;;;18.40
22828;BMP180;11580;52.562;13.418;2022-10-22T04:59:49;100192.00;;;18.40
22828;BMP180;11580;52.562;13.418;2022-10-22T05:02:18;100179.00;;;18.40
22828;BMP180;11580;52.562;13.418;2022-10-22T05:04:45;100191.00;;;18.40
22828;BMP180;11580;52.562;13.418;2022-10-22T05:07:13;100191.00;;;18.30
22828;BMP180;11580;52.562;13.418;2022-10-22T05:09:40;100198.00;;;18.30
22828;BMP180;11580;52.562;13.418;2022-10-22T05:12:07;100198.00;;;18.30
22828;BMP180;11580;52.562;13.418;2022-10-22T05:14:34;100187.00;;;18.30
22828;BMP180;11580;52.562;13.418;2022-10-22T05:17:01;100191.00;;;18.30
22828;BMP180;11580;52.562;13.418;2022-10-22T05:19:30;100199.00;;;18.20
22828;BMP180;11580;52.562;13.418;2022-10-22T05:22:01;100200.00;;;18.20
22828;BMP180;11580;52.562;13.418;2022-10-22T05:24:30;100194.00;;;18.20
22828;BMP180;11580;52.562;13.418;2022-10-22T05:26:59;100208.00;;;18.10
22828;BMP180;11580;52.562;13.418;2022-10-22T05:29:26;100203.00;;;18.10
22828;BMP180;11580;52.562;13.418;2022-10-22T05:31:54;100208.00;;;18.10
22828;BMP180;11580;52.562;13.418;2022-10-22T05:34:21;100200.00;;;18.10
22828;BMP180;11580;52.562;13.418;2022-10-22T05:36:50;100207.00;;;18.00
22828;BMP180;11580;52.562;13.418;2022-10-22T05:39:17;100203.00;;;18.00
22828;BMP180;11580;52.562;13.418;2022-10-22T05:41:44;100210.00;;;18.00
22828;BMP180;11580;52.562;13.418;2022-10-22T05:44:11;100200.00;;;17.90
22828;BMP180;11580;52.562;13.418;2022-10-22T05:46:39;100211.00;;;17.90
22828;BMP180;11580;52.562;13.418;2022-10-22T05:49:12;100206.00;;;17.90
22828;BMP180;11580;52.562;13.418;2022-10-22T05:51:40;100214.00;;;17.90
22828;BMP180;11580;52.562;13.418;2022-10-22T05:54:16;100216.00;;;17.90
22828;BMP180;11580;52.562;13.418;2022-10-22T05:56:44;100214.00;;;17.90
22828;BMP180;11580;52.562;13.418;2022-10-22T05:59:11;100219.00;;;17.90
22828;BMP180;11580;52.562;13.418;2022-10-22T06:01:39;100215.00;;;17.90
22828;BMP180;11580;52.562;13.418;2022-10-22T06:04:11;100220.00;;;17.90
22828;BMP180;11580;52.562;13.418;2022-10-22T06:06:42;100223.00;;;17.90
22828;BMP180;11580;52.562;13.418;2022-10-22T06:09:16;100228.00;;;17.90
22828;BMP180;11580;52.562;13.418;2022-10-22T06:11:44;100219.00;;;17.90
22828;BMP180;11580;52.562;13.418;2022-10-22T06:14:12;100226.00;;;17.90
22828;BMP180;11580;52.562;13.418;2022-10-22T06:16:40;100238.00;;;17.90
22828;BMP180;11580;52.562;13.418;2022-10-22T06:19:11;100238.00;;;17.90
22828;BMP180;11580;52.562;13.418;2022-10-22T06:21:39;100234.00;;;17.90
22828;BMP180;11580;52.562;13.418;2022-10-22T06:24:08;100219.00;;;17.90
22828;BMP180;11580;52.562;13.418;2022-10-22T06:26:38;100244.00;;;17.90
22828;BMP180;11580;52.562;13.418;2022-10-22T06:29:06;100243.00;;;18.00
22828;BMP180;11580;52.562;13.418;2022-10-22T06:31:33;100242.00;;;18.00
22828;BMP180;11580;52.562;13.418;2022-10-22T06:34:02;100252.00;;;18.10
22828;BMP180;11580;52.562;13.418;2022-10-22T06:36:29;100245.00;;;18.10
22828;BMP180;11580;52.562;13.418;2022-10-22T06:38:56;100251.00;;;18.20
22828;BMP180;11580;52.562;13.418;2022-10-22T06:41:24;100261.00;;;18.20
22828;BMP180;11580;52.562;13.418;2022-10-22T06:43:53;100266.00;;;18.30
22828;BMP180;11580;52.562;13.418;2022-10-22T06:46:22;100261.00;;;18.40
22828;BMP180;11580;52.562;13.418;2022-10-22T06:48:52;100277.00;;;18.40
22828;BMP180;11580;52.562;13.418;2022-10-22T06:51:19;100274.00;;;18.50
22828;BMP180;11580;52.562;13.418;2022-10-22T06:53:47;100271.00;;;18.60
22828;BMP180;11580;52.562;13.418;2022-10-22T06:56:18;100268.00;;;18.60
22828;BMP180;11580;52.562;13.418;2022-10-22T06:58:46;100274.00;;;18.70
22828;BMP180;11580;52.562;13.418;2022-10-22T07:01:22;100268.00;;;18.70
22828;BMP180;11580;52.562;13.418;2022-10-22T07:03:51;100263.00;;;18.80
22828;BMP180;11580;52.562;13.418;2022-10-22T07:06:20;100275.00;;;18.80
22828;BMP180;11580;52.562;13.418;2022-10-22T07:08:48;100275.00;;;18.90
22828;BMP180;11580;52.562;13.418;2022-10-22T07:11:18;100285.00;;;19.00
22828;BMP180;11580;52.562;13.418;2022-10-22T07:13:46;100280.00;;;19.00
22828;BMP180;11580;52.562;13.418;2022-10-22T07:16:16;100281.00;;;19.10
22828;BMP180;11580;52.562;13.418;2022-10-22T07:18:44;100288.00;;;19.20
22828;BMP180;11580;52.562;13.418;2022-10-22T07:21:14;100286.00;;;19.20
22828;BMP180;11580;52.562;13.418;2022-10-22T07:23:42;100288.00;;;19.30
22828;BMP180;11580;52.562;13.418;2022-10-22T07:26:12;100302.00;;;19.40
22828;BMP180;11580;52.562;13.418;2022-10-22T07:28:40;100299.00;;;19.50
22828;BMP180;11580;52.562;13.418;2022-10-22T07:31:10;100289.00;;;19.50
22828;BMP180;11580;52.562;13.418;2022-10-22T07:33:39;100281.00;;;19.60
22828;BMP180;11580;52.562;13.418;2022-10-22T07:36:10;100309.00;;;19.70
22828;BMP180;11580;52.562;13.418;2022-10-22T07:38:42;100312.00;;;19.70
22828;BMP180;11580;52.562;13.418;2022-10-22T07:41:10;100324.00;;;19.80
22828;BMP180;11580;52.562;13.418;2022-10-22T07:43:37;100335.00;;;19.80
22828;BMP180;11580;52.562;13.418;2022-10-22T07:46:05;100343.00;;;19.90
22828;BMP180;11580;52.562;13.418;2022-10-22T07:48:33;100335.00;;;20.00
22828;BMP180;11580;52.562;13.418;2022-10-22T07:51:02;100333.00;;;20.10
22828;BMP180;11580;52.562;13.418;2022-10-22T07:53:30;100337.00;;;20.10
22828;BMP180;11580;52.562;13.418;2022-10-22T07:55:57;100344.00;;;20.20
22828;BMP180;11580;52.562;13.418;2022-10-22T07:58:25;100347.00;;;20.30
22828;BMP180;11580;52.562;13.418;2022-10-22T08:00:54;100348.00;;;20.40
22828;BMP180;11580;52.562;13.418;2022-10-22T08:03:22;100350.00;;;20.50
22828;BMP180;11580;52.562;13.418;2022-10-22T08:05:51;100362.00;;;20.60
22828;BMP180;11580;52.562;13.418;2022-10-22T08:08:20;100361.00;;;20.60
22828;BMP180;11580;52.562;13.418;2022-10-22T08:10:51;100362.00;;;20.70
22828;BMP180;11580;52.562;13.418;2022-10-22T08:13:19;100361.00;;;20.80
22828;BMP180;11580;52.562;13.418;2022-10-22T08:15:46;100367.00;;;20.80
22828;BMP180;11580;52.562;13.418;2022-10-22T08:18:14;100363.00;;;20.80
22828;BMP180;11580;52.562;13.418;2022-10-22T08:20:41;100363.00;;;20.90
22828;BMP180;11580;52.562;13.418;2022-10-22T08:23:08;100368.00;;;20.90
22828;BMP180;11580;52.562;13.418;2022-10-22T08:25:37;100364.00;;;20.90
22828;BMP180;11580;52.562;13.418;2022-10-22T08:28:04;100358.00;;;20.90
22828;BMP180;11580;52.562;13.418;2022-10-22T08:30:31;100360.00;;;20.90
22828;BMP180;11580;52.562;13.418;2022-10-22T08:32:58;100363.00;;;20.90
22828;BMP180;11580;52.562;13.418;2022-10-22T08:35:26;100367.00;;;20.90
22828;BMP180;11580;52.562;13.418;2022-10-22T08:37:53;100378.00;;;20.90
22828;BMP180;11580;52.562;13.418;2022-10-22T08:40:25;100376.00;;;20.90
22828;BMP180;11580;52.562;13.418;2022-10-22T08:43:31;100375.00;;;20.90
22828;BMP180;11580;52.562;13.418;2022-10-22T08:46:16;100386.00;;;20.90
22828;BMP180;11580;52.562;13.418;2022-10-22T08:48:51;100364.00;;;20.90
22828;BMP180;11580;52.562;13.418;2022-10-22T08:51:23;100393.00;;;20.90
22828;BMP180;11580;52.562;13.418;2022-10-22T08:54:18;100386.00;;;20.90
22828;BMP180;11580;52.562;13.418;2022-10-22T08:57:27;100395.00;;;20.90
22828;BMP180;11580;52.562;13.418;2022-10-22T09:00:04;100397.00;;;21.00
22828;BMP180;11580;52.562;13.418;2022-10-22T09:02:42;100407.00;;;21.00
22828;BMP180;11580;52.562;13.418;2022-10-22T09:05:33;100409.00;;;21.00
22828;BMP180;11580;52.562;13.418;2022-10-22T09:08:08;100409.00;;;21.10
22828;BMP180;11580;52.562;13.418;2022-10-22T09:10:42;100408.00;;;21.10
22828;BMP180;11580;52.562;13.418;2022-10-22T09:13:16;100419.00;;;21.10
22828;BMP180;11580;52.562;13.418;2022-10-22T09:15:48;100410.00;;;21.20
22828;BMP180;11580;52.562;13.418;2022-10-22T09:18:30;100404.00;;;21.20
22828;BMP180;11580;52.562;13.418;2022-10-22T09:21:08;100411.00;;;21.20
22828;BMP180;11580;52.562;13.418;2022-10-22T09:23:58;100421.00;;;21.30
22828;BMP180;11580;52.562;13.418;2022-10-22T09:26:33;100415.00;;;21.30
22828;BMP180;11580;52.562;13.418;2022-10-22T09:29:03;100421.00;;;21.40
22828;BMP180;11580;52.562;13.418;2022-10-22T09:31:33;100419.00;;;21.30
22828;BMP180;11580;52.562;13.418;2022-10-22T09:34:01;100421.00;;;21.40
22828;BMP180;11580;52.562;13.418;2022-10-22T09:36:33;100423.00;;;21.50
22828;BMP180;11580;52.562;13.418;2022-10-22T09:39:00;100412.00;;;21.60
22828;BMP180;11580;52.562;13.418;2022-10-22T09:41:29;100428.00;;;21.60
22828;BMP180;11580;52.562;13.418;2022-10-22T09:43:57;100435.00;;;21.70
22828;BMP180;11580;52.562;13.418;2022-10-22T09:46:28;100432.00;;;21.80
22828;BMP180;11580;52.562;13.418;2022-10-22T09:49:08;100433.00;;;21.90
22828;BMP180;11580;52.562;13.418;2022-10-22T09:51:47;100431.00;;;22.10
22828;BMP180;11580;52.562;13.418;2022-10-22T09:54:17;100445.00;;;22.20
22828;BMP180;11580;52.562;13.418;2022-10-22T09:56:54;100445.00;;;22.40
22828;BMP180;11580;52.562;13.418;2022-10-22T09:59:28;100453.00;;;22.60
22828;BMP180;11580;52.562;13.418;2022-10-22T10:02:05;100450.00;;;22.70
22828;BMP180;11580;52.562;13.418;2022-10-22T10:04:40;100447.00;;;22.80
22828;BMP180;11580;52.562;13.418;2022-10-22T10:07:16;100456.00;;;22.90
22828;BMP180;11580;52.562;13.418;2022-10-22T10:09:44;100449.00;;;22.90
22828;BMP180;11580;52.562;13.418;2022-10-22T10:12:31;100451.00;;;22.90
22828;BMP180;11580;52.562;13.418;2022-10-22T10:15:12;100451.00;;;22.80
22828;BMP180;11580;52.562;13.418;2022-10-22T10:17:51;100446.00;;;22.80
22828;BMP180;11580;52.562;13.418;2022-10-22T10:20:33;100457.00;;;22.80
22828;BMP180;11580;52.562;13.418;2022-10-22T10:23:13;100456.00;;;22.70
22828;BMP180;11580;52.562;13.418;2022-10-22T10:25:52;100456.00;;;22.70
22828;BMP180;11580;52.562;13.418;2022-10-22T10:28:42;100461.00;;;22.60
22828;BMP180;11580;52.562;13.418;2022-10-22T10:31:21;100460.00;;;22.60
22828;BMP180;11580;52.562;13.418;2022-10-22T10:34:02;100458.00;;;22.60
22828;BMP180;11580;52.562;13.418;2022-10-22T10:36:44;100452.00;;;22.60
22828;BMP180;11580;52.562;13.418;2022-10-22T10:39:24;100450.00;;;22.60
22828;BMP180;11580;52.562;13.418;2022-10-22T10:42:02;100446.00;;;22.60
22828;BMP180;11580;52.562;13.418;2022-10-22T10:44:53;100448.00;;;22.70
22828;BMP180;11580;52.562;13.418;2022-10-22T10:48:14;100454.00;;;22.70
22828;BMP180;11580;52.562;13.418;2022-10-22T10:50:57;100449.00;;;22.60
22828;BMP180;11580;52.562;13.418;2022-10-22T10:53:45;100460.00;;;22.60
22828;BMP180;11580;52.562;13.418;2022-10-22T10:56:29;100458.00;;;22.60
22828;BMP180;11580;52.562;13.418;2022-10-22T10:59:12;100430.00;;;22.60
22828;BMP180;11580;52.562;13.418;2022-10-22T11:01:59;100459.00;;;22.60
22828;BMP180;11580;52.562;13.418;2022-10-22T11:04:55;100462.00;;;22.70
22828;BMP180;11580;52.562;13.418;2022-10-22T11:07:27;100461.00;;;22.70
22828;BMP180;11580;52.562;13.418;2022-10-22T11:10:07;100457.00;;;22.80
22828;BMP180;11580;52.562;13.418;2022-10-22T11:12:41;100462.00;;;22.90
22828;BMP180;11580;52.562;13.418;2022-10-22T11:15:22;100457.00;;;22.90
22828;BMP180;11580;52.562;13.418;2022-10-22T11:17:54;100450.00;;;22.90
22828;BMP180;11580;52.562;13.418;2022-10-22T11:20:31;100447.00;;;22.90
22828;BMP180;11580;52.562;13.418;2022-10-22T11:23:08;100453.00;;;23.00
22828;BMP180;11580;52.562;13.418;2022-10-22T11:25:44;100459.00;;;23.10
22828;BMP180;11580;52.562;13.418;2022-10-22T11:28:16;100457.00;;;23.10
22828;BMP180;11580;52.562;13.418;2022-10-22T11:30:52;100453.00;;;23.20
22828;BMP180;11580;52.562;13.418;2022-10-22T11:33:26;100459.00;;;23.20
22828;BMP180;11580;52.562;13.418;2022-10-22T11:35:56;100468.00;;;23.30
22828;BMP180;11580;52.562;13.418;2022-10-22T11:38:25;100463.00;;;23.40
22828;BMP180;11580;52.562;13.418;2022-10-22T11:40:59;100455.00;;;23.50
22828;BMP180;11580;52.562;13.418;2022-10-22T11:43:31;100468.00;;;23.50
22828;BMP180;11580;52.562;13.418;2022-10-22T11:46:26;100461.00;;;23.50
22828;BMP180;11580;52.562;13.418;2022-10-22T11:49:13;100464.00;;;23.50
22828;BMP180;11580;52.562;13.418;2022-10-22T11:51:43;100463.00;;;23.40
22828;BMP180;11580;52.562;13.418;2022-10-22T11:54:37;100460.00;;;23.30
22828;BMP180;11580;52.562;13.418;2022-10-22T11:57:25;100450.00;;;23.20
22828;BMP180;11580;52.562;13.418;2022-10-22T11:59:57;100460.00;;;23.10
22828;BMP180;11580;52.562;13.418;2022-10-22T12:02:42;100458.00;;;23.10
22828;BMP180;11580;52.562;13.418;2022-10-22T12:05:35;100462.00;;;23.00
22828;BMP180;11580;52.562;13.418;2022-10-22T12:08:15;100467.00;;;23.00
22828;BMP180;11580;52.562;13.418;2022-10-22T12:11:14;100463.00;;;23.00
22828;BMP180;11580;52.562;13.418;2022-10-22T12:14:02;100463.00;;;23.00
22828;BMP180;11580;52.562;13.418;2022-10-22T12:16:36;100464.00;;;23.00
22828;BMP180;11580;52.562;13.418;2022-10-22T12:19:14;100463.00;;;23.00
22828;BMP180;11580;52.562;13.418;2022-10-22T12:21:46;100469.00;;;23.00
22828;BMP180;11580;52.562;13.418;2022-10-22T12:24:18;100465.00;;;23.00
22828;BMP180;11580;52.562;13.418;2022-10-22T12:26:46;100463.00;;;23.00
22828;BMP180;11580;52.562;13.418;2022-10-22T12:29:18;100471.00;;;23.00
22828;BMP180;11580;52.562;13.418;2022-10-22T12:31:48;100456.00;;;23.00
22828;BMP180;11580;52.562;13.418;2022-10-22T12:34:20;100463.00;;;23.00
22828;BMP180;11580;52.562;13.418;2022-10-22T12:36:51;100467.00;;;23.00
22828;BMP180;11580;52.562;13.418;2022-10-22T12:39:22;100463.00;;;23.10
22828;BMP180;11580;52.562;13.418;2022-10-22T12:41:52;100464.00;;;23.10
22828;BMP180;11580;52.562;13.418;2022-10-22T12:44:21;100464.00;;;23.20
22828;BMP180;11580;52.562;13.418;2022-10-22T12:46:49;100468.00;;;23.30
22828;BMP180;11580;52.562;13.418;2022-10-22T12:49:21;100462.00;;;23.40
22828;BMP180;11580;52.562;13.418;2022-10-22T12:51:48;100474.00;;;23.50
22828;BMP180;11580;52.562;13.418;2022-10-22T12:54:27;100446.00;;;23.50
22828;BMP180;11580;52.562;13.418;2022-10-22T12:56:56;100462.00;;;23.60
22828;BMP180;11580;52.562;13.418;2022-10-22T12:59:28;100466.00;;;23.60
22828;BMP180;11580;52.562;13.418;2022-10-22T13:01:59;100460.00;;;23.60
22828;BMP180;11580;52.562;13.418;2022-10-22T13:04:35;100461.00;;;23.60
22828;BMP180;11580;52.562;13.418;2022-10-22T13:07:17;100459.00;;;23.60
22828;BMP180;11580;52.562;13.418;2022-10-22T13:09:47;100460.00;;;23.60
22828;BMP180;11580;52.562;13.418;2022-10-22T13:12:25;100460.00;;;23.60
22828;BMP180;11580;52.562;13.418;2022-10-22T13:14:54;100466.00;;;23.60
22828;BMP180;11580;52.562;13.418;2022-10-22T13:17:38;100464.00;;;23.60
22828;BMP180;11580;52.562;13.418;2022-10-22T13:20:18;100470.00;;;23.50
22828;BMP180;11580;52.562;13.418;2022-10-22T13:22:55;100469.00;;;23.50
22828;BMP180;11580;52.562;13.418;2022-10-22T13:25:28;100475.00;;;23.50
22828;BMP180;11580;52.562;13.418;2022-10-22T13:27:58;100477.00;;;23.40
22828;BMP180;11580;52.562;13.418;2022-10-22T13:30:30;100474.00;;;23.40
22828;BMP180;11580;52.562;13.418;2022-10-22T13:33:00;100479.00;;;23.30
22828;BMP180;11580;52.562;13.418;2022-10-22T13:35:31;100474.00;;;23.30
22828;BMP180;11580;52.562;13.418;2022-10-22T13:37:59;100463.00;;;23.30
22828;BMP180;11580;52.562;13.418;2022-10-22T13:40:26;100476.00;;;23.30
22828;BMP180;11580;52.562;13.418;2022-10-22T13:42:54;100476.00;;;23.30
22828;BMP180;11580;52.562;13.418;2022-10-22T13:45:21;100474.00;;;23.20
22828;BMP180;11580;52.562;13.418;2022-10-22T13:47:52;100477.00;;;23.20
22828;BMP180;11580;52.562;13.418;2022-10-22T13:50:21;100484.00;;;23.10
22828;BMP180;11580;52.562;13.418;2022-10-22T13:52:51;100481.00;;;23.10
22828;BMP180;11580;52.562;13.418;2022-10-22T13:55:21;100481.00;;;23.00
22828;BMP180;11580;52.562;13.418;2022-10-22T13:57:51;100478.00;;;22.90
22828;BMP180;11580;52.562;13.418;2022-10-22T14:00:20;100462.00;;;22.90
22828;BMP180;11580;52.562;13.418;2022-10-22T14:02:53;100488.00;;;22.80
22828;BMP180;11580;52.562;13.418;2022-10-22T14:05:21;100483.00;;;22.80
22828;BMP180;11580;52.562;13.418;2022-10-22T14:07:49;100495.00;;;22.80
22828;BMP180;11580;52.562;13.418;2022-10-22T14:10:20;100489.00;;;22.70
22828;BMP180;11580;52.562;13.418;2022-10-22T14:12:48;100494.00;;;22.70